MDT,Max TemperatureF,Mean TemperatureF,Min TemperatureF,Max Dew PointF,MeanDew PointF,Min DewpointF,Max Humidity, Mean Humidity, Min Humidity, Max Sea Level PressureIn, Mean Sea Level PressureIn, Min Sea Level PressureIn, Max VisibilityMiles, Mean VisibilityMiles, Min VisibilityMiles, Max Wind SpeedMPH, Mean Wind SpeedMPH, Max Gust SpeedMPH,PrecipitationIn, CloudCover, Events, WindDirDegrees
2012-9-1,89,77,64,49,44,37,52,36,19,29.95,29.81,29.72,10,10,10,16,7,25,0.00,1,,345
2012-9-2,86,69,51,45,36,23,59,35,11,30.05,29.94,29.86,10,10,10,8,5,21,0.00,1,,27
2012-9-3,87,66,45,28,22,11,42,24,6,30.01,29.93,29.85,10,10,10,9,4,,0.00,0,,122
2012-9-4,84,65,46,33,22,13,42,26,9,30.06,29.93,29.87,10,9,7,15,7,20,0.00,0,,3
2012-9-5,86,65,43,38,30,21,58,34,9,30.08,29.94,29.78,10,10,8,9,4,,0.00,0,,45
2012-9-6,73,59,45,46,33,21,72,48,24,30.14,29.97,29.82,10,10,9,12,5,,T,2,,103
2012-9-7,75,60,44,42,38,32,76,49,21,30.26,30.21,30.13,10,10,10,8,4,,0.00,1,,255
2012-9-8,84,63,42,39,30,19,70,41,11,30.32,30.20,30.08,10,10,10,9,4,,0.00,0,,82
2012-9-9,92,68,44,33,21,13,50,28,6,30.06,29.91,29.74,10,10,9,10,4,,0.00,0,,180
2012-9-10,90,72,53,43,34,20,48,31,14,29.85,29.72,29.65,10,10,8,28,10,43,0.00,0,,221
2012-9-11,76,61,46,43,31,25,68,42,16,30.09,29.87,29.72,10,10,7,13,6,,0.00,0,,352
2012-9-12,70,53,36,28,18,13,52,32,11,30.35,30.22,30.09,10,10,9,13,5,,0.00,0,,331
2012-9-13,78,56,34,28,16,6,61,34,7,30.44,30.36,30.30,10,10,10,9,3,,0.00,0,,163
2012-9-14,88,62,36,29,18,10,44,25,6,30.33,30.20,30.05,10,10,6,8,3,,0.00,0,,106
2012-9-15,90,66,42,28,15,5,38,21,4,30.12,30.00,29.89,10,9,6,10,4,,0.00,0,,101
2012-9-16,80,63,46,43,25,9,66,39,12,30.19,30.03,29.93,10,8,3,29,9,44,T,2,Rain,264
2012-9-17,72,58,44,43,35,27,71,47,22,30.20,30.11,30.04,10,10,10,9,4,,0.00,2,,74
2012-9-18,82,62,42,35,28,24,53,33,13,30.13,30.02,29.88,10,10,7,8,4,,0.00,0,,113
2012-9-19,78,62,45,31,26,22,46,30,14,30.16,30.06,29.95,10,10,9,10,4,14,0.00,0,,57
2012-9-20,79,60,40,33,26,21,49,32,15,30.17,30.08,30.01,10,9,2,9,4,13,0.00,0,,182
2012-9-21,83,64,45,32,29,24,58,36,13,30.17,30.09,30.01,10,10,8,12,5,,0.00,0,,235
2012-9-22,85,63,40,37,30,25,58,35,11,30.18,30.06,29.96,10,10,10,8,4,,0.00,0,,38
2012-9-23,81,61,41,38,31,25,50,33,16,30.11,30.00,29.92,10,10,7,7,4,,0.00,0,,134
2012-9-24,80,63,45,44,36,29,53,36,18,30.00,29.90,29.81,10,10,8,10,5,,0.00,1,,99
2012-9-25,79,65,50,43,39,31,66,43,19,29.98,29.87,29.81,10,10,9,15,6,17,0.00,1,,162
2012-9-26,77,62,47,46,41,37,71,48,25,30.10,30.00,29.93,10,10,7,17,6,25,T,1,Rain-Thunderstorm,178
2012-9-27,76,60,43,44,40,35,77,50,23,30.12,30.05,29.99,10,10,5,6,2,9,0.00,1,,351
2012-9-28,82,63,43,41,37,32,70,44,18,30.07,29.98,29.88,10,10,9,9,3,16,0.00,1,,15
2012-9-29,78,62,45,41,36,33,70,45,20,30.07,29.99,29.93,10,10,9,9,3,16,0.00,1,,227
2012-9-30,78,61,43,38,36,32,71,46,21,30.19,30.10,30.04,10,10,9,12,5,18,0.00,1,,9